Nearby METAR Reports

 

KAGC - Pittsburgh/Alleg, Pennsylvania, USA
Distance from station: N 14mi, 23km
Updated: Thu, Sep-20-2018 8:53pm EDT
Clear
Clear
 Wind from SSE
Wind: SSE 5 mph , 7 km/h
Temperature: 75°F , 24°C
Dew Point: 68°F , 20°C
Humidity: 78%
Barometer: 30.11 inHg , 1019.6 hPa
Clouds: Clear
Visibility: 10 miles , 16 km
2018/09/21 00:53 KAGC 210053Z 16004KT 10SM CLR 24/20 A3011 RMK AO2 SLP194 T02440200
KAFJ - Washington, Pennsylvania, USA
Distance from station: W 17mi, 28km
Updated: Wed, Sep-19-2018 9:56am EDT
NOT Current
Light rain, Overcast
Light rain, Overcast
 Wind from varies
Wind: varies 5 mph , 7 km/h
Barometer: 30.06 inHg , 1017.9 hPa
Summary: Light rain
Clouds: Overcast
Visibility: 10 miles , 16 km
Cloud details: Mostly cloudy 600 ft
Mostly cloudy 3200 ft
Overcast 4500 ft
2018/09/19 13:56 KAFJ 191356Z AUTO VRB04KT 10SM -RA BKN006 BKN032 OVC045 A3006 RMK AO2 RAB40 CIG 004V009 SLPNO P0000 FZRANO $
 
KLBE - Latrobe, Pennsylvania, USA
Distance from station: ENE 30mi, 48km
Updated: Thu, Sep-20-2018 9:50pm EDT
Clear
Clear
 Wind from SSW
Wind: SSW 7 mph , 11 km/h
Temperature: 75°F , 24°C
Dew Point: 70°F , 21°C
Humidity: 83%
Barometer: 30.13 inHg , 1020.3 hPa
Clouds: Clear
Visibility: 15 miles , 24 km
2018/09/21 01:50 KLBE 210150Z 21006KT 15SM SKC 24/21 A3013
KPIT - Pittsburgh, Pennsylvania, USA
Distance from station: NW 30mi, 48km
Updated: Thu, Sep-20-2018 9:51pm EDT
Few Clouds
Few Clouds
 Wind from SSE
Wind: SSE 6 mph , 9 km/h
Temperature: 73°F , 23°C
Dew Point: 70°F , 21°C
Humidity: 89%
Barometer: 30.10 inHg , 1019.3 hPa
Clouds: Few Clouds
Visibility: 10 miles , 16 km
Cloud details: Few Clouds 25000 ft
2018/09/21 01:51 KPIT 210151Z 15005KT 10SM FEW250 23/21 A3010 RMK AO2 SLP191 T02330206
 
KMGW - Morgantown, West Virginia, USA
Distance from station: S 34mi, 55km
Updated: Thu, Sep-20-2018 9:53pm EDT
Clear
Clear
 Wind from varies
Wind: varies 3 mph , 6 km/h
Temperature: 73°F , 23°C
Dew Point: 66°F , 19°C
Humidity: 78%
Barometer: 30.14 inHg , 1020.7 hPa
Clouds: Clear
Visibility: 10 miles , 16 km
2018/09/21 01:53 KMGW 210153Z VRB03KT 10SM CLR 23/19 A3014 RMK AO2 SLP198 T02330194
KHLG - Wheeling, West Virginia, USA
Distance from station: W 37mi, 60km
Updated: Thu, Sep-20-2018 9:53pm EDT
Clear
Clear
 Wind from SE
Wind: SE 8 mph , 13 km/h
Temperature: 75°F , 24°C
Dew Point: 70°F , 21°C
Humidity: 83%
Barometer: 30.09 inHg , 1019 hPa
Clouds: Clear
Visibility: 10 miles , 16 km
2018/09/21 01:53 KHLG 210153Z 14007KT 10SM CLR 24/21 A3009 RMK AO2 SLP185 T02390206
 
KBTP - Butler Co., Pennsylvania, USA
Distance from station: N 43mi, 69km
Updated: Thu, Sep-20-2018 8:56pm EDT
Clear
Clear
 Wind from SE
Wind: SE 3 mph , 6 km/h
Temperature: 75°F , 24°C
Dew Point: 68°F , 20°C
Humidity: 78%
Barometer: 30.12 inHg , 1020 hPa
Clouds: Clear
Visibility: 10 miles , 16 km
2018/09/21 00:56 KBTP 210056Z AUTO 13003KT 10SM CLR 24/20 A3012 RMK AO2 SLP197 T02390200
KBVI - Beaver Falls Arp, Pennsylvania, USA
Distance from station: NNW 49mi, 79km
Updated: Thu, Sep-20-2018 8:47pm EDT
Clear
Clear
 Wind from SSE
Wind: SSE 5 mph , 7 km/h
Temperature: 75°F , 24°C
Dew Point: 68°F , 20°C
Humidity: 78%
Barometer: 30.10 inHg , 1019.3 hPa
Clouds: Clear
Visibility: 10 miles , 16 km
2018/09/21 00:47 KBVI 210047Z 15004KT 10SM CLR 24/20 A3010 RMK LAST. CONTROL TOWER CLOSED
 
K2G4 - Garrett Co, Maryland, USA
Distance from station: SE 51mi, 82km
Updated: Thu, Sep-20-2018 2:15pm EDT
NOT Current
Partly cloudy
Partly cloudy
 Wind from WNW
Wind: WNW 5 mph , 7 km/h
Temperature: 73°F , 23°C
Dew Point: 61°F , 16°C
Humidity: 65%
Barometer: 30.24 inHg , 1024 hPa
Clouds: Partly cloudy
Visibility: 10 miles , 16 km
Cloud details: Partly cloudy 3200 ft
Partly cloudy 3700 ft
2018/09/20 18:15 K2G4 201815Z AUTO 29004KT 10SM SCT032 SCT037 23/16 A3024 RMK AO1
KIDI - Indiana/Stewart, Pennsylvania, USA
Distance from station: NE 56mi, 90km
Updated: Thu, Sep-20-2018 9:55pm EDT
Clear
Clear
 Wind from S
Wind: S 8 mph , 13 km/h
Temperature: 73°F , 23°C
Dew Point: 68°F , 20°C
Humidity: 83%
Barometer: 30.18 inHg , 1022 hPa
Clouds: Clear
Visibility: 10 miles , 16 km
2018/09/21 01:55 KIDI 210155Z AUTO 17007KT 10SM CLR 23/20 A3018 RMK A01
 
KJST - Johnstown, Pennsylvania, USA
Distance from station: ENE 60mi, 96km
Updated: Thu, Sep-20-2018 8:54pm EDT
Clear
Clear
 Wind from SSE
Wind: SSE 9 mph , 15 km/h
Temperature: 70°F , 21°C
Dew Point: 66°F , 19°C
Humidity: 88%
Barometer: 30.20 inHg , 1022.7 hPa
Clouds: Clear
Visibility: 10 miles , 16 km
2018/09/21 00:54 KJST 210054Z AUTO 15008KT 10SM CLR 21/19 A3020 RMK AO2 SLP215 T02060189
KCBE - Cumberland Reg, Maryland, USA
Distance from station: ESE 72mi, 116km
Updated: Thu, Sep-20-2018 9:47pm EDT
Mostly cloudy
Mostly cloudy
 Wind from calm
Wind: Calm
Temperature: 75°F , 24°C
Dew Point: 70°F , 21°C
Humidity: 83%
Barometer: 30.20 inHg , 1022.7 hPa
Clouds: Mostly cloudy
Visibility: 10 miles , 16 km
Cloud details: Mostly cloudy 4000 ft
Mostly cloudy 4600 ft
2018/09/21 01:47 KCBE 210147Z AUTO 00000KT 10SM BKN040 BKN046 24/21 A3020 RMK AO1
 
KILG - Wilmington, Delaware, USA
Distance from station: ESE 234mi, 377km
Updated: Thu, Sep-20-2018 9:51pm EDT
Overcast
Overcast
 Wind from SE
Wind: SE 7 mph , 11 km/h
Temperature: 68°F , 20°C
Dew Point: 63°F , 17°C
Humidity: 83%
Barometer: 30.25 inHg , 1024.4 hPa
Clouds: Overcast
Visibility: 10 miles , 16 km
Cloud details: Overcast 3500 ft
2018/09/21 01:51 KILG 210151Z 14006KT 10SM OVC035 20/17 A3025 RMK AO2 SLP242 T02000167
KTUS - Tucson, Arizona, USA
Distance from station: WSW 1806mi, 3283km
Updated: Thu, Sep-20-2018 9:53pm EDT
Clear
Clear
 Wind from WNW
Wind: WNW 8 mph , 13 km/h
Temperature: 82°F , 28°C
Heat Index: 83°F , 28°C
Dew Point: 63°F , 17°C
Humidity: 51%
Barometer: 29.94 inHg , 1013.9 hPa
Clouds: Clear
Visibility: 10 miles , 16 km
2018/09/21 01:53 KTUS 210153Z 30007KT 10SM CLR 28/17 A2994 RMK AO2 SLP096 T02780172